sensor_id;sensor_type;location;lat;lon;timestamp;temperature;humidity
4985;DHT22;2509;49.902;8.600;2023-08-12T00:01:11;22.50;99.90
4985;DHT22;2509;49.902;8.600;2023-08-12T00:04:13;22.50;99.90
4985;DHT22;2509;49.902;8.600;2023-08-12T00:07:15;22.50;99.90
4985;DHT22;2509;49.902;8.600;2023-08-12T00:10:17;22.40;99.90
4985;DHT22;2509;49.902;8.600;2023-08-12T00:13:19;22.40;99.90
4985;DHT22;2509;49.902;8.600;2023-08-12T00:16:22;22.40;99.90
4985;DHT22;2509;49.902;8.600;2023-08-12T00:19:24;22.30;99.90
4985;DHT22;2509;49.902;8.600;2023-08-12T00:22:26;22.30;99.90
4985;DHT22;2509;49.902;8.600;2023-08-12T00:25:27;22.30;99.90
4985;DHT22;2509;49.902;8.600;2023-08-12T00:28:29;22.30;99.90
4985;DHT22;2509;49.902;8.600;2023-08-12T00:31:32;22.30;99.90
4985;DHT22;2509;49.902;8.600;2023-08-12T00:34:34;22.30;99.90
4985;DHT22;2509;49.902;8.600;2023-08-12T00:37:36;22.30;99.90
4985;DHT22;2509;49.902;8.600;2023-08-12T00:40:37;22.30;99.90
4985;DHT22;2509;49.902;8.600;2023-08-12T00:43:39;22.20;99.90
4985;DHT22;2509;49.902;8.600;2023-08-12T00:46:42;22.20;99.90
4985;DHT22;2509;49.902;8.600;2023-08-12T00:49:44;22.20;99.90
4985;DHT22;2509;49.902;8.600;2023-08-12T00:52:46;22.20;99.90
4985;DHT22;2509;49.902;8.600;2023-08-12T00:55:48;22.20;99.90
4985;DHT22;2509;49.902;8.600;2023-08-12T00:58:50;22.30;99.90
4985;DHT22;2509;49.902;8.600;2023-08-12T01:01:53;22.30;99.90
4985;DHT22;2509;49.902;8.600;2023-08-12T01:04:55;22.20;99.90
4985;DHT22;2509;49.902;8.600;2023-08-12T01:07:57;22.20;99.90
4985;DHT22;2509;49.902;8.600;2023-08-12T01:11:03;22.20;99.90
4985;DHT22;2509;49.902;8.600;2023-08-12T01:14:14;22.30;99.90
4985;DHT22;2509;49.902;8.600;2023-08-12T01:17:17;22.30;99.90
4985;DHT22;2509;49.902;8.600;2023-08-12T01:20:20;22.30;99.90
4985;DHT22;2509;49.902;8.600;2023-08-12T01:23:26;22.30;99.90
4985;DHT22;2509;49.902;8.600;2023-08-12T01:26:28;22.30;99.90
4985;DHT22;2509;49.902;8.600;2023-08-12T01:29:30;22.30;99.90
4985;DHT22;2509;49.902;8.600;2023-08-12T01:32:42;22.30;99.90
4985;DHT22;2509;49.902;8.600;2023-08-12T01:35:52;22.30;99.90
4985;DHT22;2509;49.902;8.600;2023-08-12T01:38:56;22.30;99.90
4985;DHT22;2509;49.902;8.600;2023-08-12T01:41:59;22.30;99.90
4985;DHT22;2509;49.902;8.600;2023-08-12T01:45:02;22.20;99.90
4985;DHT22;2509;49.902;8.600;2023-08-12T01:48:04;22.20;99.90
4985;DHT22;2509;49.902;8.600;2023-08-12T01:51:07;22.20;99.90
4985;DHT22;2509;49.902;8.600;2023-08-12T01:54:10;22.20;99.90
4985;DHT22;2509;49.902;8.600;2023-08-12T01:57:12;22.10;99.90
4985;DHT22;2509;49.902;8.600;2023-08-12T02:00:14;22.10;99.90
4985;DHT22;2509;49.902;8.600;2023-08-12T02:03:16;22.00;99.90
4985;DHT22;2509;49.902;8.600;2023-08-12T02:06:18;22.00;99.90
4985;DHT22;2509;49.902;8.600;2023-08-12T02:09:21;22.00;99.90
4985;DHT22;2509;49.902;8.600;2023-08-12T02:12:23;22.00;99.90
4985;DHT22;2509;49.902;8.600;2023-08-12T02:15:25;22.00;99.90
4985;DHT22;2509;49.902;8.600;2023-08-12T02:18:27;22.10;99.90
4985;DHT22;2509;49.902;8.600;2023-08-12T02:21:29;22.10;99.90
4985;DHT22;2509;49.902;8.600;2023-08-12T02:24:32;22.10;99.90
4985;DHT22;2509;49.902;8.600;2023-08-12T02:27:33;22.10;99.90
4985;DHT22;2509;49.902;8.600;2023-08-12T02:30:35;22.10;99.90
4985;DHT22;2509;49.902;8.600;2023-08-12T02:33:37;22.00;99.90
4985;DHT22;2509;49.902;8.600;2023-08-12T02:36:39;22.00;99.90
4985;DHT22;2509;49.902;8.600;2023-08-12T02:39:42;22.00;99.90
4985;DHT22;2509;49.902;8.600;2023-08-12T02:42:44;22.00;99.90
4985;DHT22;2509;49.902;8.600;2023-08-12T02:45:45;21.90;99.90
4985;DHT22;2509;49.902;8.600;2023-08-12T02:48:47;21.90;99.90
4985;DHT22;2509;49.902;8.600;2023-08-12T02:51:49;21.80;99.90
4985;DHT22;2509;49.902;8.600;2023-08-12T02:54:52;21.60;99.90
4985;DHT22;2509;49.902;8.600;2023-08-12T02:57:55;21.50;99.90
4985;DHT22;2509;49.902;8.600;2023-08-12T03:00:57;21.20;99.90
4985;DHT22;2509;49.902;8.600;2023-08-12T03:03:59;20.90;99.90
4985;DHT22;2509;49.902;8.600;2023-08-12T03:07:00;20.70;99.90
4985;DHT22;2509;49.902;8.600;2023-08-12T03:10:05;20.80;99.90
4985;DHT22;2509;49.902;8.600;2023-08-12T03:13:07;20.80;99.90
4985;DHT22;2509;49.902;8.600;2023-08-12T03:16:11;20.70;99.90
4985;DHT22;2509;49.902;8.600;2023-08-12T03:19:14;20.70;99.90
4985;DHT22;2509;49.902;8.600;2023-08-12T03:22:16;20.70;99.90
4985;DHT22;2509;49.902;8.600;2023-08-12T03:25:19;20.60;99.90
4985;DHT22;2509;49.902;8.600;2023-08-12T03:28:21;20.70;99.90
4985;DHT22;2509;49.902;8.600;2023-08-12T03:31:22;20.70;99.90
4985;DHT22;2509;49.902;8.600;2023-08-12T03:34:24;20.70;99.90
4985;DHT22;2509;49.902;8.600;2023-08-12T03:37:26;20.70;99.90
4985;DHT22;2509;49.902;8.600;2023-08-12T03:40:29;20.70;99.90
4985;DHT22;2509;49.902;8.600;2023-08-12T03:43:31;20.60;99.90
4985;DHT22;2509;49.902;8.600;2023-08-12T03:46:34;20.40;99.90
4985;DHT22;2509;49.902;8.600;2023-08-12T03:49:35;20.30;99.90
4985;DHT22;2509;49.902;8.600;2023-08-12T03:52:37;20.40;99.90
4985;DHT22;2509;49.902;8.600;2023-08-12T03:55:41;20.40;99.90
4985;DHT22;2509;49.902;8.600;2023-08-12T03:58:43;20.40;99.90
4985;DHT22;2509;49.902;8.600;2023-08-12T04:01:45;20.30;99.90
4985;DHT22;2509;49.902;8.600;2023-08-12T04:04:47;20.30;99.90
4985;DHT22;2509;49.902;8.600;2023-08-12T04:07:48;20.30;99.90
4985;DHT22;2509;49.902;8.600;2023-08-12T04:10:52;20.30;99.90
4985;DHT22;2509;49.902;8.600;2023-08-12T04:13:53;20.30;99.90
4985;DHT22;2509;49.902;8.600;2023-08-12T04:16:55;20.30;99.90
4985;DHT22;2509;49.902;8.600;2023-08-12T04:19:57;20.30;99.90
4985;DHT22;2509;49.902;8.600;2023-08-12T04:22:58;20.30;99.90
4985;DHT22;2509;49.902;8.600;2023-08-12T04:26:02;20.40;99.90
4985;DHT22;2509;49.902;8.600;2023-08-12T04:29:03;20.30;99.90
4985;DHT22;2509;49.902;8.600;2023-08-12T04:32:05;20.30;99.90
4985;DHT22;2509;49.902;8.600;2023-08-12T04:35:08;20.40;99.90
4985;DHT22;2509;49.902;8.600;2023-08-12T04:38:10;20.50;99.90
4985;DHT22;2509;49.902;8.600;2023-08-12T04:41:13;20.50;99.90
4985;DHT22;2509;49.902;8.600;2023-08-12T04:44:15;20.30;99.90
4985;DHT22;2509;49.902;8.600;2023-08-12T04:47:16;20.30;99.90
4985;DHT22;2509;49.902;8.600;2023-08-12T04:50:18;20.30;99.90
4985;DHT22;2509;49.902;8.600;2023-08-12T04:53:20;20.30;99.90
4985;DHT22;2509;49.902;8.600;2023-08-12T04:56:23;20.30;99.90
4985;DHT22;2509;49.902;8.600;2023-08-12T04:59:25;20.40;99.90
4985;DHT22;2509;49.902;8.600;2023-08-12T05:02:27;20.40;99.90
4985;DHT22;2509;49.902;8.600;2023-08-12T05:05:29;20.40;99.90
4985;DHT22;2509;49.902;8.600;2023-08-12T05:08:30;20.30;99.90
4985;DHT22;2509;49.902;8.600;2023-08-12T05:11:33;20.40;99.90
4985;DHT22;2509;49.902;8.600;2023-08-12T05:14:35;20.50;99.90
4985;DHT22;2509;49.902;8.600;2023-08-12T05:17:37;20.50;99.90
4985;DHT22;2509;49.902;8.600;2023-08-12T05:20:39;20.50;99.90
4985;DHT22;2509;49.902;8.600;2023-08-12T05:23:41;20.60;99.90
4985;DHT22;2509;49.902;8.600;2023-08-12T05:26:44;20.60;99.90
4985;DHT22;2509;49.902;8.600;2023-08-12T05:29:46;20.60;99.90
4985;DHT22;2509;49.902;8.600;2023-08-12T05:32:48;20.60;99.90
4985;DHT22;2509;49.902;8.600;2023-08-12T05:35:50;20.70;99.90
4985;DHT22;2509;49.902;8.600;2023-08-12T05:38:51;20.70;99.90
4985;DHT22;2509;49.902;8.600;2023-08-12T05:41:55;20.70;99.90
4985;DHT22;2509;49.902;8.600;2023-08-12T05:44:56;20.80;99.90
4985;DHT22;2509;49.902;8.600;2023-08-12T05:47:58;20.90;99.90
4985;DHT22;2509;49.902;8.600;2023-08-12T05:51:00;21.00;99.90
4985;DHT22;2509;49.902;8.600;2023-08-12T05:54:01;21.00;99.90
4985;DHT22;2509;49.902;8.600;2023-08-12T05:57:05;21.00;99.90
4985;DHT22;2509;49.902;8.600;2023-08-12T06:00:07;21.10;99.90
4985;DHT22;2509;49.902;8.600;2023-08-12T06:03:09;21.20;99.90
4985;DHT22;2509;49.902;8.600;2023-08-12T06:06:11;21.30;99.90
4985;DHT22;2509;49.902;8.600;2023-08-12T06:09:12;21.40;99.90
4985;DHT22;2509;49.902;8.600;2023-08-12T06:12:15;21.30;99.90
4985;DHT22;2509;49.902;8.600;2023-08-12T06:15:17;21.30;99.90
4985;DHT22;2509;49.902;8.600;2023-08-12T06:18:19;21.30;99.90
4985;DHT22;2509;49.902;8.600;2023-08-12T06:21:21;21.30;99.90
4985;DHT22;2509;49.902;8.600;2023-08-12T06:24:23;21.20;99.90
4985;DHT22;2509;49.902;8.600;2023-08-12T06:27:26;21.30;99.90
4985;DHT22;2509;49.902;8.600;2023-08-12T06:30:28;21.20;99.90
4985;DHT22;2509;49.902;8.600;2023-08-12T06:33:29;21.20;99.90
4985;DHT22;2509;49.902;8.600;2023-08-12T06:36:31;21.10;99.90
4985;DHT22;2509;49.902;8.600;2023-08-12T06:39:33;21.20;99.90
4985;DHT22;2509;49.902;8.600;2023-08-12T06:42:36;21.40;99.90
4985;DHT22;2509;49.902;8.600;2023-08-12T06:45:38;21.50;99.90
4985;DHT22;2509;49.902;8.600;2023-08-12T06:48:39;21.70;99.90
4985;DHT22;2509;49.902;8.600;2023-08-12T06:51:41;21.90;99.90
4985;DHT22;2509;49.902;8.600;2023-08-12T06:54:43;22.00;99.90
4985;DHT22;2509;49.902;8.600;2023-08-12T06:57:46;22.10;99.90
4985;DHT22;2509;49.902;8.600;2023-08-12T07:00:47;22.10;99.90
4985;DHT22;2509;49.902;8.600;2023-08-12T07:03:49;22.30;99.90
4985;DHT22;2509;49.902;8.600;2023-08-12T07:06:51;22.50;99.90
4985;DHT22;2509;49.902;8.600;2023-08-12T07:09:53;22.50;99.90
4985;DHT22;2509;49.902;8.600;2023-08-12T07:12:56;22.60;99.90
4985;DHT22;2509;49.902;8.600;2023-08-12T07:15:58;22.70;99.90
4985;DHT22;2509;49.902;8.600;2023-08-12T07:18:59;22.70;99.90
4985;DHT22;2509;49.902;8.600;2023-08-12T07:22:01;22.70;99.90
4985;DHT22;2509;49.902;8.600;2023-08-12T07:25:03;22.80;99.90
4985;DHT22;2509;49.902;8.600;2023-08-12T07:28:07;22.80;99.90
4985;DHT22;2509;49.902;8.600;2023-08-12T07:31:08;22.90;99.90
4985;DHT22;2509;49.902;8.600;2023-08-12T07:34:10;22.90;99.90
4985;DHT22;2509;49.902;8.600;2023-08-12T07:37:13;23.00;99.90
4985;DHT22;2509;49.902;8.600;2023-08-12T07:40:15;23.20;99.90
4985;DHT22;2509;49.902;8.600;2023-08-12T07:43:18;23.40;99.90
4985;DHT22;2509;49.902;8.600;2023-08-12T07:46:20;23.50;99.90
4985;DHT22;2509;49.902;8.600;2023-08-12T07:49:22;23.50;99.90
4985;DHT22;2509;49.902;8.600;2023-08-12T07:52:24;23.50;99.90
4985;DHT22;2509;49.902;8.600;2023-08-12T07:55:26;23.50;99.90
4985;DHT22;2509;49.902;8.600;2023-08-12T07:58:29;23.50;99.90
4985;DHT22;2509;49.902;8.600;2023-08-12T08:01:31;23.50;99.90
4985;DHT22;2509;49.902;8.600;2023-08-12T08:04:33;23.40;99.90
4985;DHT22;2509;49.902;8.600;2023-08-12T08:07:35;23.40;99.90
4985;DHT22;2509;49.902;8.600;2023-08-12T08:10:37;23.30;99.90
4985;DHT22;2509;49.902;8.600;2023-08-12T08:13:40;23.30;99.90
4985;DHT22;2509;49.902;8.600;2023-08-12T08:16:42;23.40;99.90
4985;DHT22;2509;49.902;8.600;2023-08-12T08:19:43;23.30;99.90
4985;DHT22;2509;49.902;8.600;2023-08-12T08:22:45;23.30;99.90
4985;DHT22;2509;49.902;8.600;2023-08-12T08:25:48;23.30;99.90
4985;DHT22;2509;49.902;8.600;2023-08-12T08:28:51;23.40;99.90
4985;DHT22;2509;49.902;8.600;2023-08-12T08:31:52;23.40;99.90
4985;DHT22;2509;49.902;8.600;2023-08-12T08:34:54;23.40;99.90
4985;DHT22;2509;49.902;8.600;2023-08-12T08:37:56;23.40;99.90
4985;DHT22;2509;49.902;8.600;2023-08-12T08:40:58;23.40;99.90
4985;DHT22;2509;49.902;8.600;2023-08-12T08:44:02;23.50;99.90
4985;DHT22;2509;49.902;8.600;2023-08-12T08:47:04;23.50;99.90
4985;DHT22;2509;49.902;8.600;2023-08-12T08:50:08;23.70;99.90
4985;DHT22;2509;49.902;8.600;2023-08-12T08:53:11;23.90;99.90
4985;DHT22;2509;49.902;8.600;2023-08-12T08:56:13;24.00;99.90
4985;DHT22;2509;49.902;8.600;2023-08-12T08:59:16;24.00;99.90
4985;DHT22;2509;49.902;8.600;2023-08-12T09:02:18;24.00;99.90
4985;DHT22;2509;49.902;8.600;2023-08-12T09:05:20;24.10;99.90
4985;DHT22;2509;49.902;8.600;2023-08-12T09:08:23;24.10;99.90
4985;DHT22;2509;49.902;8.600;2023-08-12T09:11:26;24.20;99.90
4985;DHT22;2509;49.902;8.600;2023-08-12T09:14:29;24.20;99.90
4985;DHT22;2509;49.902;8.600;2023-08-12T09:17:31;24.30;99.90
4985;DHT22;2509;49.902;8.600;2023-08-12T09:20:33;24.40;99.90
4985;DHT22;2509;49.902;8.600;2023-08-12T09:23:36;24.40;99.90
4985;DHT22;2509;49.902;8.600;2023-08-12T09:26:38;24.40;99.90
4985;DHT22;2509;49.902;8.600;2023-08-12T09:29:44;24.50;99.90
4985;DHT22;2509;49.902;8.600;2023-08-12T09:32:58;24.60;99.90
4985;DHT22;2509;49.902;8.600;2023-08-12T09:36:00;24.70;99.90
4985;DHT22;2509;49.902;8.600;2023-08-12T09:39:06;24.80;99.90
4985;DHT22;2509;49.902;8.600;2023-08-12T09:42:09;25.00;99.90
4985;DHT22;2509;49.902;8.600;2023-08-12T09:45:12;25.00;99.90
4985;DHT22;2509;49.902;8.600;2023-08-12T09:48:16;25.00;99.90
4985;DHT22;2509;49.902;8.600;2023-08-12T09:51:18;25.20;99.90
4985;DHT22;2509;49.902;8.600;2023-08-12T09:54:22;25.20;99.90
4985;DHT22;2509;49.902;8.600;2023-08-12T09:57:25;25.20;99.90
4985;DHT22;2509;49.902;8.600;2023-08-12T10:00:31;25.20;99.90
4985;DHT22;2509;49.902;8.600;2023-08-12T10:03:34;25.20;99.90
4985;DHT22;2509;49.902;8.600;2023-08-12T10:06:36;25.20;99.90
4985;DHT22;2509;49.902;8.600;2023-08-12T10:09:39;25.30;99.90
4985;DHT22;2509;49.902;8.600;2023-08-12T10:12:41;25.20;99.90
4985;DHT22;2509;49.902;8.600;2023-08-12T10:15:44;24.90;99.90
4985;DHT22;2509;49.902;8.600;2023-08-12T10:18:47;24.60;99.90
4985;DHT22;2509;49.902;8.600;2023-08-12T10:21:53;24.20;99.90
4985;DHT22;2509;49.902;8.600;2023-08-12T10:24:56;23.90;99.90
4985;DHT22;2509;49.902;8.600;2023-08-12T10:27:59;23.80;99.90
4985;DHT22;2509;49.902;8.600;2023-08-12T10:31:03;23.80;99.90
4985;DHT22;2509;49.902;8.600;2023-08-12T10:34:05;23.60;99.90
4985;DHT22;2509;49.902;8.600;2023-08-12T10:37:10;23.30;99.90
4985;DHT22;2509;49.902;8.600;2023-08-12T10:40:20;23.00;99.90
4985;DHT22;2509;49.902;8.600;2023-08-12T10:43:26;22.90;99.90
4985;DHT22;2509;49.902;8.600;2023-08-12T10:46:31;22.70;99.90
4985;DHT22;2509;49.902;8.600;2023-08-12T10:49:38;22.50;99.90
4985;DHT22;2509;49.902;8.600;2023-08-12T10:52:40;22.40;99.90
4985;DHT22;2509;49.902;8.600;2023-08-12T10:55:48;22.30;99.90
4985;DHT22;2509;49.902;8.600;2023-08-12T10:58:50;22.20;99.90
4985;DHT22;2509;49.902;8.600;2023-08-12T11:02:05;22.10;99.90
4985;DHT22;2509;49.902;8.600;2023-08-12T11:05:08;21.90;99.90
4985;DHT22;2509;49.902;8.600;2023-08-12T11:08:58;21.70;99.90
4985;DHT22;2509;49.902;8.600;2023-08-12T11:12:46;21.70;99.90
4985;DHT22;2509;49.902;8.600;2023-08-12T11:20:38;21.40;99.90
4985;DHT22;2509;49.902;8.600;2023-08-12T11:24:05;21.30;99.90
4985;DHT22;2509;49.902;8.600;2023-08-12T11:31:24;21.30;99.90
4985;DHT22;2509;49.902;8.600;2023-08-12T11:34:39;21.30;99.90
4985;DHT22;2509;49.902;8.600;2023-08-12T11:37:51;21.40;99.90
4985;DHT22;2509;49.902;8.600;2023-08-12T11:41:19;21.40;99.90
4985;DHT22;2509;49.902;8.600;2023-08-12T11:44:45;21.30;99.90
4985;DHT22;2509;49.902;8.600;2023-08-12T11:48:09;21.30;99.90
4985;DHT22;2509;49.902;8.600;2023-08-12T11:51:28;21.20;99.90
4985;DHT22;2509;49.902;8.600;2023-08-12T11:54:46;21.10;99.90
4985;DHT22;2509;49.902;8.600;2023-08-12T11:57:48;21.00;99.90
4985;DHT22;2509;49.902;8.600;2023-08-12T12:00:49;21.00;99.90
4985;DHT22;2509;49.902;8.600;2023-08-12T12:03:52;21.00;99.90
4985;DHT22;2509;49.902;8.600;2023-08-12T12:06:54;21.00;99.90
4985;DHT22;2509;49.902;8.600;2023-08-12T12:09:57;21.10;99.90
4985;DHT22;2509;49.902;8.600;2023-08-12T12:13:00;21.10;99.90
4985;DHT22;2509;49.902;8.600;2023-08-12T12:16:02;21.10;99.90
4985;DHT22;2509;49.902;8.600;2023-08-12T12:19:04;21.20;99.90
4985;DHT22;2509;49.902;8.600;2023-08-12T12:22:08;21.20;99.90
4985;DHT22;2509;49.902;8.600;2023-08-12T12:25:13;21.20;99.90
4985;DHT22;2509;49.902;8.600;2023-08-12T12:28:15;21.30;99.90
4985;DHT22;2509;49.902;8.600;2023-08-12T12:31:16;21.40;99.90
4985;DHT22;2509;49.902;8.600;2023-08-12T12:34:18;21.50;99.90
4985;DHT22;2509;49.902;8.600;2023-08-12T12:37:20;21.80;99.90
4985;DHT22;2509;49.902;8.600;2023-08-12T12:40:23;22.10;99.90
4985;DHT22;2509;49.902;8.600;2023-08-12T12:43:25;22.40;99.90
4985;DHT22;2509;49.902;8.600;2023-08-12T12:46:27;22.80;99.90
4985;DHT22;2509;49.902;8.600;2023-08-12T12:49:29;23.00;99.90
4985;DHT22;2509;49.902;8.600;2023-08-12T12:52:30;23.00;99.90
4985;DHT22;2509;49.902;8.600;2023-08-12T12:55:34;23.50;99.90
4985;DHT22;2509;49.902;8.600;2023-08-12T12:58:36;24.20;99.90
4985;DHT22;2509;49.902;8.600;2023-08-12T13:01:38;24.70;99.90
4985;DHT22;2509;49.902;8.600;2023-08-12T13:04:40;25.40;99.90
4985;DHT22;2509;49.902;8.600;2023-08-12T13:07:43;25.60;99.90
4985;DHT22;2509;49.902;8.600;2023-08-12T13:10:46;25.20;99.90
4985;DHT22;2509;49.902;8.600;2023-08-12T13:14:13;25.20;99.90
4985;DHT22;2509;49.902;8.600;2023-08-12T13:17:17;25.40;99.90
4985;DHT22;2509;49.902;8.600;2023-08-12T13:20:19;25.90;99.90
4985;DHT22;2509;49.902;8.600;2023-08-12T13:23:20;26.40;99.90
4985;DHT22;2509;49.902;8.600;2023-08-12T13:26:23;26.60;99.90
4985;DHT22;2509;49.902;8.600;2023-08-12T13:29:25;26.90;99.90
4985;DHT22;2509;49.902;8.600;2023-08-12T13:32:27;27.20;99.90
4985;DHT22;2509;49.902;8.600;2023-08-12T13:35:29;27.60;99.90
4985;DHT22;2509;49.902;8.600;2023-08-12T13:38:31;27.90;99.90
4985;DHT22;2509;49.902;8.600;2023-08-12T13:41:34;28.10;99.90
4985;DHT22;2509;49.902;8.600;2023-08-12T13:44:35;28.00;99.90
4985;DHT22;2509;49.902;8.600;2023-08-12T13:47:37;27.50;99.90
4985;DHT22;2509;49.902;8.600;2023-08-12T13:50:39;26.60;99.90
4985;DHT22;2509;49.902;8.600;2023-08-12T13:53:41;26.30;99.90
4985;DHT22;2509;49.902;8.600;2023-08-12T13:56:44;26.90;99.90
4985;DHT22;2509;49.902;8.600;2023-08-12T13:59:45;27.60;99.90
4985;DHT22;2509;49.902;8.600;2023-08-12T14:02:48;27.60;99.90
4985;DHT22;2509;49.902;8.600;2023-08-12T14:05:49;27.20;99.90
4985;DHT22;2509;49.902;8.600;2023-08-12T14:08:51;27.00;99.90
4985;DHT22;2509;49.902;8.600;2023-08-12T14:11:54;27.20;99.90
4985;DHT22;2509;49.902;8.600;2023-08-12T14:14:56;28.00;99.90
4985;DHT22;2509;49.902;8.600;2023-08-12T14:17:58;28.80;99.90
4985;DHT22;2509;49.902;8.600;2023-08-12T14:20:59;29.30;99.90
4985;DHT22;2509;49.902;8.600;2023-08-12T14:24:01;29.40;99.90
4985;DHT22;2509;49.902;8.600;2023-08-12T14:27:04;29.60;99.90
4985;DHT22;2509;49.902;8.600;2023-08-12T14:30:07;29.60;99.90
4985;DHT22;2509;49.902;8.600;2023-08-12T14:33:09;29.80;99.90
4985;DHT22;2509;49.902;8.600;2023-08-12T14:36:11;29.90;99.90
4985;DHT22;2509;49.902;8.600;2023-08-12T14:39:13;29.60;99.90
4985;DHT22;2509;49.902;8.600;2023-08-12T14:42:16;28.70;99.90
4985;DHT22;2509;49.902;8.600;2023-08-12T14:45:18;28.10;99.90
4985;DHT22;2509;49.902;8.600;2023-08-12T14:48:20;27.80;99.90
4985;DHT22;2509;49.902;8.600;2023-08-12T14:51:22;27.80;99.90
4985;DHT22;2509;49.902;8.600;2023-08-12T14:54:24;27.90;99.90
4985;DHT22;2509;49.902;8.600;2023-08-12T14:57:27;27.80;99.90
4985;DHT22;2509;49.902;8.600;2023-08-12T15:00:28;28.10;99.90
4985;DHT22;2509;49.902;8.600;2023-08-12T15:03:31;27.90;99.90
4985;DHT22;2509;49.902;8.600;2023-08-12T15:06:32;27.80;99.90
4985;DHT22;2509;49.902;8.600;2023-08-12T15:09:34;28.30;99.90
4985;DHT22;2509;49.902;8.600;2023-08-12T15:12:37;28.30;99.90
4985;DHT22;2509;49.902;8.600;2023-08-12T15:15:39;27.80;99.90
4985;DHT22;2509;49.902;8.600;2023-08-12T15:18:41;27.30;99.90
4985;DHT22;2509;49.902;8.600;2023-08-12T15:21:43;27.10;99.90
4985;DHT22;2509;49.902;8.600;2023-08-12T15:24:45;26.70;99.90
4985;DHT22;2509;49.902;8.600;2023-08-12T15:27:48;26.10;99.90
4985;DHT22;2509;49.902;8.600;2023-08-12T15:30:50;25.90;99.90
4985;DHT22;2509;49.902;8.600;2023-08-12T15:33:52;26.00;99.90
4985;DHT22;2509;49.902;8.600;2023-08-12T15:36:53;26.10;99.90
4985;DHT22;2509;49.902;8.600;2023-08-12T15:39:55;26.40;99.90
4985;DHT22;2509;49.902;8.600;2023-08-12T15:42:58;26.40;99.90
4985;DHT22;2509;49.902;8.600;2023-08-12T15:46:00;26.30;99.90
4985;DHT22;2509;49.902;8.600;2023-08-12T15:49:02;26.40;99.90
4985;DHT22;2509;49.902;8.600;2023-08-12T15:52:05;26.50;99.90
4985;DHT22;2509;49.902;8.600;2023-08-12T15:55:07;26.40;99.90
4985;DHT22;2509;49.902;8.600;2023-08-12T15:58:10;26.40;99.90
4985;DHT22;2509;49.902;8.600;2023-08-12T16:01:12;26.30;99.90
4985;DHT22;2509;49.902;8.600;2023-08-12T16:04:14;26.40;99.90
4985;DHT22;2509;49.902;8.600;2023-08-12T16:07:16;26.50;99.90
4985;DHT22;2509;49.902;8.600;2023-08-12T16:10:18;26.50;99.90
4985;DHT22;2509;49.902;8.600;2023-08-12T16:13:21;26.50;99.90
4985;DHT22;2509;49.902;8.600;2023-08-12T16:16:23;26.50;99.90
4985;DHT22;2509;49.902;8.600;2023-08-12T16:19:24;26.40;99.90
4985;DHT22;2509;49.902;8.600;2023-08-12T16:22:26;26.30;99.90
4985;DHT22;2509;49.902;8.600;2023-08-12T16:25:28;26.30;99.90
4985;DHT22;2509;49.902;8.600;2023-08-12T16:28:32;26.40;99.90
4985;DHT22;2509;49.902;8.600;2023-08-12T16:31:35;26.40;99.90
4985;DHT22;2509;49.902;8.600;2023-08-12T16:34:37;26.50;99.90
4985;DHT22;2509;49.902;8.600;2023-08-12T16:37:38;26.60;99.90
4985;DHT22;2509;49.902;8.600;2023-08-12T16:40:40;26.50;99.90
4985;DHT22;2509;49.902;8.600;2023-08-12T16:43:43;26.50;99.90
4985;DHT22;2509;49.902;8.600;2023-08-12T16:46:45;26.40;99.90
4985;DHT22;2509;49.902;8.600;2023-08-12T16:49:47;26.30;99.90
4985;DHT22;2509;49.902;8.600;2023-08-12T16:52:48;26.20;99.90
4985;DHT22;2509;49.902;8.600;2023-08-12T16:55:50;26.10;99.90
4985;DHT22;2509;49.902;8.600;2023-08-12T16:58:53;26.10;99.90
4985;DHT22;2509;49.902;8.600;2023-08-12T17:01:55;26.10;99.90
4985;DHT22;2509;49.902;8.600;2023-08-12T17:04:57;25.90;99.90
4985;DHT22;2509;49.902;8.600;2023-08-12T17:07:59;25.70;99.90
4985;DHT22;2509;49.902;8.600;2023-08-12T17:11:04;25.60;99.90
4985;DHT22;2509;49.902;8.600;2023-08-12T17:14:07;25.40;99.90
4985;DHT22;2509;49.902;8.600;2023-08-12T17:17:09;25.30;99.90
4985;DHT22;2509;49.902;8.600;2023-08-12T17:20:11;25.20;99.90
4985;DHT22;2509;49.902;8.600;2023-08-12T17:23:13;25.10;99.90
4985;DHT22;2509;49.902;8.600;2023-08-12T17:26:15;25.00;99.90
4985;DHT22;2509;49.902;8.600;2023-08-12T17:29:18;24.90;99.90
4985;DHT22;2509;49.902;8.600;2023-08-12T17:32:20;25.00;99.90
4985;DHT22;2509;49.902;8.600;2023-08-12T17:35:21;25.00;99.90
4985;DHT22;2509;49.902;8.600;2023-08-12T17:38:23;25.00;99.90
4985;DHT22;2509;49.902;8.600;2023-08-12T17:41:25;25.00;99.90
4985;DHT22;2509;49.902;8.600;2023-08-12T17:44:28;25.00;99.90
4985;DHT22;2509;49.902;8.600;2023-08-12T17:47:31;25.00;99.90
4985;DHT22;2509;49.902;8.600;2023-08-12T17:50:33;24.90;99.90
4985;DHT22;2509;49.902;8.600;2023-08-12T17:53:34;24.90;99.90
4985;DHT22;2509;49.902;8.600;2023-08-12T17:56:36;24.80;99.90
4985;DHT22;2509;49.902;8.600;2023-08-12T17:59:39;24.80;99.90
4985;DHT22;2509;49.902;8.600;2023-08-12T18:02:41;24.80;99.90
4985;DHT22;2509;49.902;8.600;2023-08-12T18:05:43;24.70;99.90
4985;DHT22;2509;49.902;8.600;2023-08-12T18:08:44;24.70;99.90
4985;DHT22;2509;49.902;8.600;2023-08-12T18:11:46;24.60;99.90
4985;DHT22;2509;49.902;8.600;2023-08-12T18:14:49;24.60;99.90
4985;DHT22;2509;49.902;8.600;2023-08-12T18:17:51;24.60;99.90
4985;DHT22;2509;49.902;8.600;2023-08-12T18:20:53;24.50;99.90
4985;DHT22;2509;49.902;8.600;2023-08-12T18:23:55;24.50;99.90
4985;DHT22;2509;49.902;8.600;2023-08-12T18:26:56;24.50;99.90
4985;DHT22;2509;49.902;8.600;2023-08-12T18:29:59;24.50;99.90
4985;DHT22;2509;49.902;8.600;2023-08-12T18:33:01;24.50;99.90
4985;DHT22;2509;49.902;8.600;2023-08-12T18:36:06;24.40;99.90
4985;DHT22;2509;49.902;8.600;2023-08-12T18:39:07;24.40;99.90
4985;DHT22;2509;49.902;8.600;2023-08-12T18:42:09;24.40;99.90
4985;DHT22;2509;49.902;8.600;2023-08-12T18:45:12;24.30;99.90
4985;DHT22;2509;49.902;8.600;2023-08-12T18:48:14;24.20;99.90
4985;DHT22;2509;49.902;8.600;2023-08-12T18:51:16;24.20;99.90
4985;DHT22;2509;49.902;8.600;2023-08-12T18:54:20;24.10;99.90
4985;DHT22;2509;49.902;8.600;2023-08-12T18:57:22;24.10;99.90
4985;DHT22;2509;49.902;8.600;2023-08-12T19:00:25;24.00;99.90
4985;DHT22;2509;49.902;8.600;2023-08-12T19:03:26;24.00;99.90
4985;DHT22;2509;49.902;8.600;2023-08-12T19:06:28;23.90;99.90
4985;DHT22;2509;49.902;8.600;2023-08-12T19:09:30;23.90;99.90
4985;DHT22;2509;49.902;8.600;2023-08-12T19:12:32;23.90;99.90
4985;DHT22;2509;49.902;8.600;2023-08-12T19:15:35;23.80;99.90
4985;DHT22;2509;49.902;8.600;2023-08-12T19:18:36;23.80;99.90
4985;DHT22;2509;49.902;8.600;2023-08-12T19:21:38;23.70;99.90
4985;DHT22;2509;49.902;8.600;2023-08-12T19:24:40;23.70;99.90
4985;DHT22;2509;49.902;8.600;2023-08-12T19:27:42;23.60;99.90
4985;DHT22;2509;49.902;8.600;2023-08-12T19:30:48;23.60;99.90
4985;DHT22;2509;49.902;8.600;2023-08-12T19:33:50;23.60;99.90
4985;DHT22;2509;49.902;8.600;2023-08-12T19:36:52;23.60;99.90
4985;DHT22;2509;49.902;8.600;2023-08-12T19:39:54;23.50;99.90
4985;DHT22;2509;49.902;8.600;2023-08-12T19:42:56;23.50;99.90
4985;DHT22;2509;49.902;8.600;2023-08-12T19:45:59;23.50;99.90
4985;DHT22;2509;49.902;8.600;2023-08-12T19:49:01;23.50;99.90
4985;DHT22;2509;49.902;8.600;2023-08-12T19:52:03;23.50;99.90
4985;DHT22;2509;49.902;8.600;2023-08-12T19:55:07;23.40;99.90
4985;DHT22;2509;49.902;8.600;2023-08-12T19:58:09;23.40;99.90
4985;DHT22;2509;49.902;8.600;2023-08-12T20:01:12;23.30;99.90
4985;DHT22;2509;49.902;8.600;2023-08-12T20:04:13;23.30;99.90